Time;durP1;ratioP1;P1;durP2;ratioP2;P2;SDS_P1;SDS_P2;PMS_P1;PMS_P2;Temp;Humidity;BMP_temperature;BMP_pressure;BME280_temperature;BME280_humidity;BME280_pressure;Samples;Min_cycle;Max_cycle;Signal;HPM_P1;HPM_P2
2021/12/22 00:02:11;;;;;;;43.50;17.57;;;;;;;-9.99;99.24;99680.79;1838057;78;21081;-67
2021/12/22 00:04:46;;;;;;;46.08;17.17;;;;;;;-9.96;99.41;99684.95;1837965;78;21437;-67
2021/12/22 00:07:13;;;;;;;45.75;15.90;;;;;;;-9.87;99.80;99695.02;1837889;78;20964;-67
2021/12/22 00:09:45;;;;;;;49.88;16.45;;;;;;;-9.84;100.00;99686.67;1806748;78;21058;-68
2021/12/22 00:12:13;;;;;;;29.57;13.50;;;;;;;-9.88;99.87;99689.36;1838010;78;20905;-66
2021/12/22 00:14:41;;;;;;;41.75;15.70;;;;;;;-9.96;99.70;99691.09;1782031;78;21126;-67
2021/12/22 00:17:12;;;;;;;38.90;14.60;;;;;;;-10.02;99.48;99689.99;1838041;77;20876;-68
2021/12/22 00:19:38;;;;;;;38.20;14.87;;;;;;;-10.06;99.49;99690.02;1806752;78;20960;-67
2021/12/22 00:22:12;;;;;;;38.53;14.95;;;;;;;-10.06;99.65;99689.18;1836419;78;21444;-67
2021/12/22 00:24:40;;;;;;;42.45;16.32;;;;;;;-10.10;99.59;99698.56;1841946;77;21444;-66
2021/12/22 00:27:08;;;;;;;36.90;14.87;;;;;;;-10.14;99.58;99694.92;1844155;77;21517;-67
2021/12/22 00:29:36;;;;;;;41.75;13.70;;;;;;;-10.22;99.21;99699.49;1844188;77;20891;-68
2021/12/22 00:32:12;;;;;;;37.28;14.50;;;;;;;-10.37;98.68;99704.25;1844302;77;20853;-67
2021/12/22 00:34:47;;;;;;;32.98;14.03;;;;;;;-10.45;98.45;99705.64;1844375;77;20963;-67
2021/12/22 00:37:09;;;;;;;40.78;14.65;;;;;;;-10.48;98.46;99710.03;1843539;77;20911;-68
2021/12/22 00:39:37;;;;;;;38.85;14.80;;;;;;;-10.54;98.33;99715.06;1844207;77;21117;-67
2021/12/22 00:42:04;;;;;;;37.00;14.23;;;;;;;-10.61;98.18;99707.47;1844237;77;20914;-67
2021/12/22 00:44:35;;;;;;;42.08;14.03;;;;;;;-10.71;97.82;99709.52;1844646;77;20987;-68
2021/12/22 00:47:03;;;;;;;31.80;13.60;;;;;;;-10.84;97.42;99710.91;1844334;77;20924;-66
2021/12/22 00:49:33;;;;;;;37.90;13.45;;;;;;;-11.00;96.95;99710.48;1844690;77;21011;-68
2021/12/22 00:51:59;;;;;;;31.68;13.22;;;;;;;-11.10;96.70;99714.69;1844197;77;21967;-66
2021/12/22 00:54:30;;;;;;;31.52;13.55;;;;;;;-11.16;96.52;99719.38;1843435;77;20857;-65
2021/12/22 00:57:02;;;;;;;31.55;12.70;;;;;;;-11.21;96.37;99719.91;1844394;77;20974;-67
2021/12/22 00:59:29;;;;;;;32.17;13.40;;;;;;;-11.19;96.55;99729.05;1843694;77;20931;-66
2021/12/22 01:01:56;;;;;;;37.50;14.20;;;;;;;-11.16;96.82;99728.70;1844333;77;20998;-66
2021/12/22 01:04:23;;;;;;;35.65;14.90;;;;;;;-11.19;96.74;99728.53;1844137;77;21129;-67
2021/12/22 01:06:49;;;;;;;38.95;15.40;;;;;;;-11.18;96.82;99728.03;1844077;77;20975;-67
2021/12/22 01:09:19;;;;;;;40.43;15.15;;;;;;;-11.15;97.02;99724.53;1844261;77;21054;-67
2021/12/22 01:11:50;;;;;;;38.28;15.28;;;;;;;-11.17;96.86;99732.38;1819435;77;20992;-67
2021/12/22 01:14:17;;;;;;;37.70;14.45;;;;;;;-11.25;96.56;99729.22;1844578;77;21034;-68
2021/12/22 01:16:49;;;;;;;40.00;15.00;;;;;;;-11.30;96.36;99732.41;1844312;77;20853;-67
2021/12/22 01:19:22;;;;;;;41.05;13.83;;;;;;;-11.33;96.32;99733.24;1844290;77;20852;-64
2021/12/22 01:21:54;;;;;;;38.95;14.73;;;;;;;-11.35;96.39;99728.09;1817957;77;21011;-68
2021/12/22 01:24:31;;;;;;;33.40;13.83;;;;;;;-11.37;96.39;99729.59;1843752;77;20976;-68
2021/12/22 01:27:09;;;;;;;36.40;15.32;;;;;;;-11.38;96.37;99732.44;1844466;77;20948;-67
2021/12/22 01:29:42;;;;;;;34.63;14.47;;;;;;;-11.38;96.42;99739.89;1785261;80;21160;-68
2021/12/22 01:32:12;;;;;;;35.83;12.60;;;;;;;-11.35;96.79;99738.73;1784987;80;21060;-67
2021/12/22 01:34:44;;;;;;;41.53;14.80;;;;;;;-11.36;96.82;99740.56;1785174;80;21410;-68
2021/12/22 01:37:13;;;;;;;37.35;14.40;;;;;;;-11.40;96.63;99737.09;1791114;79;20848;-68
2021/12/22 01:39:44;;;;;;;34.45;16.25;;;;;;;-11.42;96.60;99739.08;1760365;81;20894;-67
2021/12/22 01:42:11;;;;;;;36.30;15.08;;;;;;;-11.46;96.46;99737.26;1791051;80;21148;-67
2021/12/22 01:45:28;;;;;;;41.05;15.00;;;;;;;-11.53;96.28;99746.42;1791352;80;20880;-67
2021/12/22 01:50:07;;;;;;;32.35;13.98;;;;;;;-11.63;95.98;99755.92;1791422;80;21036;-67
2021/12/22 01:52:35;;;;;;;38.58;15.25;;;;;;;-11.68;95.82;99763.57;1716447;80;21015;-67
2021/12/22 01:55:15;;;;;;;36.50;14.47;;;;;;;-11.66;96.02;99760.73;1791502;80;22121;-67
2021/12/22 01:57:48;;;;;;;45.20;16.30;;;;;;;-11.68;95.95;99755.59;1790694;80;20924;-66
2021/12/22 02:00:20;;;;;;;38.50;14.43;;;;;;;-11.70;95.95;99764.23;1790827;80;20965;-67
2021/12/22 02:02:49;;;;;;;39.48;15.08;;;;;;;-11.69;96.06;99765.07;1791051;80;21575;-68
2021/12/22 02:05:21;;;;;;;49.25;16.10;;;;;;;-11.66;96.28;99770.89;1791147;80;20908;-68
2021/12/22 02:08:00;;;;;;;45.48;15.90;;;;;;;-11.66;96.30;99772.22;1790982;80;21005;-68
2021/12/22 02:10:45;;;;;;;;;;;;;;;;;;;;;
2021/12/22 02:12:58;;;;;;;53.23;18.42;;;;;;;-11.61;96.52;99768.56;1783396;80;27233;-68
2021/12/22 02:15:33;;;;;;;;;;;;;;;-11.60;96.49;99765.41;1794234;80;20917;-67
2021/12/22 02:18:03;;;;;;;36.48;13.60;;;;;;;-11.66;96.21;99764.73;1791161;80;20130;-68
2021/12/22 02:20:31;;;;;;;41.75;14.80;;;;;;;-11.81;95.70;99765.42;1791287;80;21136;-67
2021/12/22 02:23:01;;;;;;;35.98;13.90;;;;;;;-11.95;95.33;99766.07;1790735;80;21007;-67
2021/12/22 02:25:35;;;;;;;34.48;13.53;;;;;;;-12.11;94.98;99769.12;1780458;80;20965;-69
2021/12/22 02:28:01;;;;;;;33.33;13.45;;;;;;;-12.25;94.77;99767.93;1775820;80;20985;-69
2021/12/22 02:30:29;;;;;;;32.33;12.60;;;;;;;-12.36;94.58;99773.89;1776495;80;21009;-67
2021/12/22 02:33:22;;;;;;;36.95;14.33;;;;;;;-12.45;94.37;99767.41;1745942;80;21040;-68
2021/12/22 02:35:46;;;;;;;32.80;14.05;;;;;;;-12.48;94.37;99769.39;1835796;78;20904;-70
2021/12/22 02:38:16;;;;;;;31.65;13.20;;;;;;;-12.56;94.23;99772.52;1837476;78;21015;-70
2021/12/22 02:40:44;;;;;;;32.60;12.93;;;;;;;-12.64;94.16;99770.16;1837874;78;20943;-67
2021/12/22 02:43:19;;;;;;;33.33;12.93;;;;;;;-12.69;94.06;99765.02;1837969;78;20897;-67
2021/12/22 02:45:44;;;;;;;31.42;13.22;;;;;;;-12.73;93.97;99767.16;1807958;78;21067;-67
2021/12/22 02:48:12;;;;;;;35.40;14.07;;;;;;;-12.76;93.86;99770.95;1837923;78;21429;-69
2021/12/22 02:50:41;;;;;;;35.58;13.88;;;;;;;-12.78;93.87;99781.42;1837963;78;20948;-68
2021/12/22 02:53:15;;;;;;;35.08;12.95;;;;;;;-12.80;93.86;99776.27;1837836;77;20907;-68
2021/12/22 02:55:49;;;;;;;30.43;11.40;;;;;;;-12.81;93.84;99777.76;1838343;78;20959;-67
2021/12/22 02:58:28;;;;;;;25.25;10.85;;;;;;;-12.82;93.76;99782.23;1837693;78;21081;-68
2021/12/22 03:05:45;;;;;;;18.23;8.18;;;;;;;-12.68;93.94;99791.41;1837831;78;21094;-67
2021/12/22 03:08:14;;;;;;;16.90;8.45;;;;;;;-12.69;93.91;99786.27;1837735;78;21378;-67
2021/12/22 03:10:41;;;;;;;20.17;7.65;;;;;;;-12.73;93.78;99787.92;1838059;78;21389;-67
2021/12/22 03:13:08;;;;;;;15.23;7.47;;;;;;;-12.74;93.80;99795.53;1838033;78;20978;-66
2021/12/22 03:15:36;;;;;;;12.58;6.87;;;;;;;-12.74;93.79;99795.53;1838083;78;20986;-68
2021/12/22 03:18:06;;;;;;;14.53;7.00;;;;;;;-12.71;93.77;99796.53;1838071;78;21453;-66
2021/12/22 03:20:35;;;;;;;24.10;8.43;;;;;;;-12.68;93.86;99798.05;1838341;77;20857;-67
2021/12/22 03:23:02;;;;;;;17.80;6.67;;;;;;;-12.70;93.85;99794.72;1837928;77;21457;-67
2021/12/22 03:25:30;;;;;;;16.35;7.05;;;;;;;-12.68;93.90;99798.05;1841684;77;20947;-66
2021/12/22 03:28:02;;;;;;;22.90;7.22;;;;;;;-12.65;94.01;99796.88;1844068;77;20990;-67
2021/12/22 03:30:32;;;;;;;15.23;6.05;;;;;;;-12.61;94.17;99802.22;1844262;77;20948;-67
2021/12/22 03:33:01;;;;;;;16.77;8.28;;;;;;;-12.59;94.29;99800.24;1844145;77;21440;-66
2021/12/22 03:35:30;;;;;;;19.37;7.47;;;;;;;-12.60;94.27;99804.71;1844441;77;21470;-66
2021/12/22 03:37:58;;;;;;;13.45;8.15;;;;;;;-12.68;94.19;99802.52;1844275;77;21010;-69
2021/12/22 03:40:25;;;;;;;14.70;7.00;;;;;;;-12.75;94.12;99808.48;1844418;77;20972;-68
2021/12/22 03:42:52;;;;;;;21.20;8.08;;;;;;;-12.81;94.08;99809.13;1844178;77;20940;-69
2021/12/22 03:45:19;;;;;;;16.77;7.53;;;;;;;-12.87;93.99;99817.23;1844570;77;20995;-68
2021/12/22 03:47:47;;;;;;;24.07;8.25;;;;;;;-12.92;93.88;99817.36;1818709;77;20923;-68
2021/12/22 03:50:18;;;;;;;20.35;8.75;;;;;;;-12.99;93.79;99821.14;1844552;77;20917;-68
2021/12/22 03:52:49;;;;;;;18.23;8.25;;;;;;;-13.02;93.66;99826.28;1844386;77;20868;-67
2021/12/22 03:55:17;;;;;;;25.17;9.28;;;;;;;-12.98;93.69;99832.11;1844766;77;21066;-67
2021/12/22 03:57:50;;;;;;;18.40;8.45;;;;;;;-12.95;93.69;99835.77;1844364;77;20947;-68
2021/12/22 04:00:17;;;;;;;19.80;8.25;;;;;;;-12.91;93.79;99833.64;1844213;77;21059;-67
2021/12/22 04:02:53;;;;;;;16.75;7.15;;;;;;;-12.88;93.93;99838.63;1844098;77;20888;-67
2021/12/22 04:05:22;;;;;;;16.25;7.10;;;;;;;-12.79;94.16;99846.95;1844284;77;20968;-67
2021/12/22 04:07:49;;;;;;;16.17;6.58;;;;;;;-12.67;94.40;99846.69;1844337;77;20904;-67
2021/12/22 04:10:20;;;;;;;16.17;6.53;;;;;;;-12.55;94.58;99848.56;1844357;77;20816;-66
2021/12/22 04:12:54;;;;;;;17.27;6.83;;;;;;;-12.43;94.82;99850.44;1844516;77;21138;-66
2021/12/22 04:15:29;;;;;;;15.23;5.75;;;;;;;-12.35;94.96;99847.28;1844775;77;20888;-67
2021/12/22 04:18:00;;;;;;;16.48;7.62;;;;;;;-12.26;95.10;99846.81;1844254;77;21030;-65
2021/12/22 04:20:28;;;;;;;13.30;6.47;;;;;;;-12.20;95.21;99850.66;1844404;77;20915;-67
2021/12/22 04:22:56;;;;;;;12.78;6.20;;;;;;;-12.16;95.34;99857.81;1844287;77;21036;-68
2021/12/22 04:25:23;;;;;;;13.05;5.87;;;;;;;-12.16;95.41;99851.98;1844178;77;21293;-68
2021/12/22 04:27:55;;;;;;;18.25;5.62;;;;;;;-12.11;95.58;99854.98;1844136;77;20852;-68
2021/12/22 04:30:23;;;;;;;15.78;6.55;;;;;;;-12.08;95.72;99856.98;1844733;77;20868;-68
2021/12/22 04:32:50;;;;;;;16.80;6.15;;;;;;;-12.05;95.79;99849.97;1844315;77;21444;-65
2021/12/22 04:35:22;;;;;;;15.55;6.75;;;;;;;-12.01;95.87;99856.13;1844285;77;20954;-68
2021/12/22 04:37:51;;;;;;;18.07;8.48;;;;;;;-11.92;96.10;99858.82;1844509;77;21164;-67
2021/12/22 04:40:19;;;;;;;25.70;9.10;;;;;;;-11.77;96.55;99865.13;1844175;77;20908;-67
2021/12/22 04:42:49;;;;;;;20.35;8.93;;;;;;;-11.68;96.67;99868.63;1844498;77;20919;-67
2021/12/22 04:45:18;;;;;;;24.67;9.30;;;;;;;-11.63;96.78;99871.63;1844641;77;20923;-67
2021/12/22 04:47:51;;;;;;;18.17;7.90;;;;;;;-11.62;96.75;99869.32;1844252;77;20982;-67
2021/12/22 04:50:22;;;;;;;17.70;7.55;;;;;;;-11.70;96.44;99873.80;1844477;77;20972;-68
2021/12/22 04:53:05;;;;;;;21.57;9.25;;;;;;;-11.70;96.56;99873.28;1844554;77;21484;-67
2021/12/22 04:55:29;;;;;;;21.45;9.45;;;;;;;-11.68;96.60;99881.09;1843878;77;20943;-67
2021/12/22 04:57:58;;;;;;;26.25;11.03;;;;;;;-11.59;96.88;99885.92;1844284;77;20884;-67
2021/12/22 05:00:31;;;;;;;24.00;8.63;;;;;;;-11.50;97.09;99879.63;1844222;77;20908;-68
2021/12/22 05:03:07;;;;;;;33.00;12.18;;;;;;;-11.46;97.12;99880.94;1844140;77;21209;-67
2021/12/22 05:05:39;;;;;;;25.95;11.57;;;;;;;-11.49;96.97;99886.59;1844404;77;20976;-67
2021/12/22 05:08:10;;;;;;;30.65;10.60;;;;;;;-11.46;97.07;99888.92;1844179;77;20904;-67
2021/12/22 05:10:37;;;;;;;26.07;10.03;;;;;;;-11.44;97.04;99884.76;1844237;77;21008;-66
2021/12/22 05:13:05;;;;;;;32.63;11.30;;;;;;;-11.51;96.78;99888.09;1844215;77;20903;-67
2021/12/22 05:15:38;;;;;;;25.32;8.98;;;;;;;-11.61;96.46;99888.75;1844365;77;20836;-66
2021/12/22 05:18:47;;;;;;;26.57;10.18;;;;;;;-11.70;96.25;99881.78;1844016;77;21400;-67
2021/12/22 05:21:00;;;;;;;31.33;11.80;;;;;;;-11.71;96.32;99892.06;1840507;77;21480;-66
2021/12/22 05:23:37;;;;;;;25.37;10.15;;;;;;;-11.69;96.48;99894.91;1840779;77;20900;-68
2021/12/22 05:26:09;;;;;;;27.80;11.08;;;;;;;-11.71;96.54;99895.56;1844045;77;20927;-68
2021/12/22 05:28:54;;;;;;;26.35;9.35;;;;;;;-11.71;96.63;99902.70;1844305;77;21463;-69
2021/12/22 05:31:24;;;;;;;24.85;8.83;;;;;;;-11.73;96.55;99906.86;1844108;77;20895;-67
2021/12/22 05:33:58;;;;;;;24.80;8.23;;;;;;;-11.73;96.56;99917.00;1818795;77;20888;-67
2021/12/22 05:36:30;;;;;;;19.25;7.25;;;;;;;-11.73;96.54;99916.17;1844260;77;20923;-68
2021/12/22 05:39:02;;;;;;;17.87;6.58;;;;;;;-11.80;96.41;99908.53;1844295;77;20947;-66
2021/12/22 05:41:31;;;;;;;25.37;9.35;;;;;;;-11.80;96.42;99913.84;1819214;77;21139;-67
2021/12/22 05:43:57;;;;;;;17.98;7.72;;;;;;;-11.79;96.55;99915.50;1844568;77;20984;-66
2021/12/22 05:46:25;;;;;;;17.17;6.55;;;;;;;-11.75;96.71;99916.33;1844194;77;20975;-67
2021/12/22 05:48:53;;;;;;;23.57;8.38;;;;;;;-11.71;96.84;99915.52;1844247;77;20967;-68
2021/12/22 05:51:22;;;;;;;19.73;7.17;;;;;;;-11.74;96.75;99923.83;1844162;77;20971;-67
2021/12/22 05:53:51;;;;;;;19.73;7.05;;;;;;;-11.80;96.61;99922.64;1844669;77;21140;-67
2021/12/22 05:56:18;;;;;;;12.50;5.00;;;;;;;-11.79;96.65;99924.32;1844191;77;20982;-67
2021/12/22 05:58:48;;;;;;;18.65;7.85;;;;;;;-11.78;96.68;99923.31;1844343;77;20896;-68
2021/12/22 06:01:19;;;;;;;16.82;5.85;;;;;;;-11.78;96.66;99922.47;1844161;77;21058;-66
2021/12/22 06:03:46;;;;;;;17.25;7.53;;;;;;;-11.78;96.58;99930.45;1844600;77;20970;-66
2021/12/22 06:06:17;;;;;;;13.78;6.10;;;;;;;-11.93;96.34;99939.07;1844386;77;21138;-67
2021/12/22 06:08:45;;;;;;;16.73;7.28;;;;;;;-11.92;96.44;99942.58;1844262;77;20995;-66
2021/12/22 06:11:15;;;;;;;17.02;6.42;;;;;;;-11.94;96.36;99951.20;1843543;77;20860;-66
2021/12/22 06:13:45;;;;;;;18.77;5.97;;;;;;;-12.04;96.21;99946.84;1844293;77;20837;-66
2021/12/22 06:16:12;;;;;;;13.22;6.60;;;;;;;-12.04;96.29;99946.84;1844263;77;21492;-66
2021/12/22 06:18:44;;;;;;;21.57;7.60;;;;;;;-12.04;96.26;99953.48;1844285;77;20813;-66
2021/12/22 06:21:14;;;;;;;15.30;6.87;;;;;;;-12.02;96.26;99962.13;1844361;77;20900;-67
2021/12/22 06:23:44;;;;;;;;;;;;;;;-12.04;96.17;99960.64;1847306;77;20932;-67
2021/12/22 06:26:10;;;;;;;18.80;7.10;;;;;;;-12.05;96.15;99960.29;1841100;77;20136;-68
2021/12/22 06:28:40;;;;;;;21.52;7.87;;;;;;;-12.08;96.11;99962.79;1837781;78;20971;-67
2021/12/22 06:31:06;;;;;;;20.12;8.05;;;;;;;-12.05;96.17;99963.80;1837951;78;22102;-68
2021/12/22 06:33:34;;;;;;;20.02;7.75;;;;;;;-12.01;96.29;99962.45;1837966;78;20860;-68
2021/12/22 06:36:02;;;;;;;18.60;7.53;;;;;;;-11.96;96.38;99969.98;1838044;77;21011;-67
2021/12/22 06:38:28;;;;;;;23.50;7.87;;;;;;;-11.87;96.47;99975.64;1838076;77;20980;-67
2021/12/22 06:40:55;;;;;;;31.40;8.75;;;;;;;-11.90;96.39;99980.44;1838085;78;20982;-68
2021/12/22 06:43:21;;;;;;;22.65;8.73;;;;;;;-11.98;96.26;99981.27;1837917;77;20986;-68
2021/12/22 06:45:49;;;;;;;15.05;6.08;;;;;;;-11.98;96.32;99985.25;1837837;78;21456;-67
2021/12/22 06:48:15;;;;;;;17.77;7.28;;;;;;;-11.98;96.22;99982.10;1837913;78;20852;-68
2021/12/22 06:50:46;;;;;;;10.50;3.55;;;;;;;-11.99;96.33;99988.39;1838198;77;20919;-68
2021/12/22 06:53:14;;;;;;;9.10;5.12;;;;;;;-11.94;96.25;99996.40;1838225;78;20852;-67
2021/12/22 06:55:44;;;;;;;9.55;4.92;;;;;;;-11.97;95.81;99999.70;1838216;78;21169;-67
2021/12/22 06:58:11;;;;;;;11.45;4.25;;;;;;;-11.95;96.21;99998.70;1837729;78;20956;-67
2021/12/22 07:00:42;;;;;;;12.93;5.95;;;;;;;-11.92;96.18;100005.86;1838484;78;21083;-67
2021/12/22 07:03:15;;;;;;;7.50;3.60;;;;;;;-11.90;96.36;100006.55;1837967;78;20951;-67
2021/12/22 07:05:43;;;;;;;10.63;3.67;;;;;;;-11.85;96.44;100006.05;1837332;78;20947;-67
2021/12/22 07:08:10;;;;;;;8.75;4.83;;;;;;;-11.85;96.31;100000.25;1837959;77;21460;-68
2021/12/22 07:10:38;;;;;;;9.68;4.67;;;;;;;-11.83;96.46;100005.41;1838168;77;20924;-67
2021/12/22 07:13:06;;;;;;;11.97;5.20;;;;;;;-11.79;96.53;100010.75;1837912;77;20887;-67
2021/12/22 07:15:35;;;;;;;9.65;3.90;;;;;;;-11.74;96.72;100012.44;1837993;77;20972;-66
2021/12/22 07:18:02;;;;;;;9.85;4.65;;;;;;;-11.72;96.66;100009.61;1838266;78;20917;-67
2021/12/22 07:20:29;;;;;;;11.30;4.83;;;;;;;-11.68;96.70;100008.76;1838357;78;22121;-67
2021/12/22 07:22:58;;;;;;;14.47;5.55;;;;;;;-11.66;96.75;100006.78;1837861;78;20888;-67
2021/12/22 07:25:25;;;;;;;12.20;4.47;;;;;;;-11.66;96.57;100008.11;1837970;77;20995;-68
2021/12/22 07:27:55;;;;;;;9.48;3.85;;;;;;;-11.71;96.68;100017.91;1837870;78;20964;-68
2021/12/22 07:30:21;;;;;;;14.93;5.25;;;;;;;-11.68;96.46;100012.75;1838517;78;20866;-68
2021/12/22 07:32:49;;;;;;;17.17;4.12;;;;;;;-11.68;96.92;100018.91;1837965;78;21110;-67
2021/12/22 07:35:55;;;;;;;6.45;2.70;;;;;;;-11.62;96.86;100020.11;1838343;78;20892;-68
2021/12/22 07:38:36;;;;;;;5.72;2.40;;;;;;;-11.62;96.98;100026.75;1838021;78;20856;-68
2021/12/22 07:41:03;;;;;;;8.65;4.00;;;;;;;-11.61;96.82;100030.58;1838362;78;20864;-67
2021/12/22 07:43:33;;;;;;;11.48;4.15;;;;;;;-11.61;96.81;100025.75;1838087;78;20912;-66
2021/12/22 07:46:02;;;;;;;11.70;5.28;;;;;;;-11.58;97.06;100032.59;1837949;78;21499;-66
2021/12/22 07:48:29;;;;;;;8.65;4.40;;;;;;;-11.58;97.03;100026.75;1838026;78;21480;-68
2021/12/22 07:50:57;;;;;;;8.65;3.77;;;;;;;-11.56;96.94;100031.42;1808127;78;21733;-67
2021/12/22 07:53:25;;;;;;;15.25;6.50;;;;;;;-11.59;96.86;100031.74;1808870;78;20916;-67
2021/12/22 07:55:54;;;;;;;12.50;5.50;;;;;;;-11.59;96.97;100034.89;1808487;78;20967;-67
2021/12/22 07:58:23;;;;;;;12.37;4.42;;;;;;;-11.57;96.96;100032.42;1837938;78;21962;-68
2021/12/22 08:00:52;;;;;;;13.25;4.70;;;;;;;-11.58;96.84;100036.06;1837865;78;20893;-70
2021/12/22 08:03:25;;;;;;;13.35;5.97;;;;;;;-11.56;97.04;100031.91;1838112;78;21409;-67
2021/12/22 08:05:54;;;;;;;9.53;5.08;;;;;;;-11.51;97.21;100032.25;1838180;77;20888;-68
2021/12/22 08:08:22;;;;;;;15.65;6.03;;;;;;;-11.51;97.04;100026.44;1782569;78;20860;-67
2021/12/22 08:10:49;;;;;;;16.35;6.72;;;;;;;-11.49;97.14;100023.62;1808478;78;21004;-68
2021/12/22 08:13:19;;;;;;;14.40;5.90;;;;;;;-11.47;97.02;100032.77;1837900;78;20994;-68
2021/12/22 08:15:48;;;;;;;23.52;6.72;;;;;;;-11.54;96.98;100024.11;1838015;77;20809;-67
2021/12/22 08:18:16;;;;;;;19.87;6.67;;;;;;;-11.54;96.93;100032.09;1838085;78;20900;-66
2021/12/22 08:20:46;;;;;;;11.97;5.45;;;;;;;-11.53;96.93;100031.09;1837930;77;20912;-67
2021/12/22 08:23:18;;;;;;;12.58;5.67;;;;;;;-11.52;96.85;100032.77;1838002;78;22055;-67
2021/12/22 08:25:51;;;;;;;12.75;5.00;;;;;;;-11.50;97.10;100032.61;1837861;77;20895;-66
2021/12/22 08:28:19;;;;;;;15.90;6.83;;;;;;;-11.50;96.52;100034.75;1838066;78;20944;-68
2021/12/22 08:30:50;;;;;;;13.38;4.92;;;;;;;-11.53;96.52;100035.08;1838137;78;21475;-68
2021/12/22 08:33:25;;;;;;;7.40;2.70;;;;;;;-11.51;96.72;100047.73;1837435;78;21003;-68
2021/12/22 08:38:52;;;;;;;9.70;4.35;;;;;;;-11.65;96.05;100041.72;1838177;78;20418;-66
2021/12/22 08:41:33;;;;;;;19.15;7.40;;;;;;;-11.69;96.69;100035.88;1838292;78;20959;-68
2021/12/22 08:44:08;;;;;;;12.28;4.30;;;;;;;-11.74;96.50;100041.69;1838153;78;20960;-67
2021/12/22 08:46:42;;;;;;;13.75;6.90;;;;;;;-11.67;97.04;100039.70;1834283;78;20979;-67
2021/12/22 08:49:13;;;;;;;16.62;6.17;;;;;;;-11.61;97.13;100038.56;1836159;78;21544;-67
2021/12/22 08:51:42;;;;;;;4.28;2.55;;;;;;;-11.47;97.36;100040.26;1838311;78;20904;-67
2021/12/22 08:54:12;;;;;;;11.63;5.50;;;;;;;-11.31;97.53;100039.97;1838074;78;20900;-67
2021/12/22 08:56:43;;;;;;;8.20;4.20;;;;;;;-11.24;97.53;100038.33;1838123;77;20952;-67
2021/12/22 08:59:12;;;;;;;14.65;6.42;;;;;;;-11.07;97.83;100036.48;1837961;78;20857;-67
2021/12/22 09:01:43;;;;;;;12.90;5.83;;;;;;;-10.96;97.88;100037.16;1838238;78;21484;-68
2021/12/22 09:04:19;;;;;;;11.22;3.67;;;;;;;-10.87;98.06;100038.84;1837774;78;21461;-67
2021/12/22 09:06:48;;;;;;;13.53;6.58;;;;;;;-10.81;97.97;100039.99;1838159;78;20857;-67
2021/12/22 09:09:18;;;;;;;11.75;4.45;;;;;;;-10.81;97.96;100040.84;1837882;78;20961;-66
2021/12/22 09:11:48;;;;;;;10.38;5.08;;;;;;;-10.77;97.99;100043.52;1837937;78;20976;-67
2021/12/22 09:14:18;;;;;;;14.53;5.55;;;;;;;-10.67;98.16;100042.49;1838372;77;21148;-67
2021/12/22 09:16:48;;;;;;;19.30;6.62;;;;;;;-10.50;98.42;100048.64;1837978;78;20836;-68
2021/12/22 09:19:19;;;;;;;15.32;6.70;;;;;;;-10.37;98.50;100043.27;1838186;78;20900;-70
2021/12/22 09:21:46;;;;;;;9.10;4.00;;;;;;;-10.43;97.94;100054.09;1838117;78;20861;-68
2021/12/22 09:24:16;;;;;;;19.32;6.70;;;;;;;-10.53;97.86;100044.98;1837956;78;20813;-66
2021/12/22 09:26:44;;;;;;;22.73;7.72;;;;;;;-10.56;98.02;100052.80;1807954;78;22135;-67
2021/12/22 09:29:15;;;;;;;19.42;7.03;;;;;;;-10.48;98.05;100051.14;1835510;78;20821;-64
2021/12/22 09:31:43;;;;;;;12.80;5.92;;;;;;;-10.43;98.38;100044.77;1819328;78;21007;-68
2021/12/22 09:34:12;;;;;;;14.10;5.65;;;;;;;-10.32;98.50;100042.27;1809217;78;21011;-66
2021/12/22 09:36:43;;;;;;;18.75;7.45;;;;;;;-10.21;98.87;100035.23;1803992;78;20972;-61
2021/12/22 09:39:11;;;;;;;19.40;7.22;;;;;;;-10.09;99.04;100030.86;1816378;78;21987;-67
2021/12/22 09:41:42;;;;;;;15.32;5.17;;;;;;;-10.00;99.16;100027.67;1816208;78;20999;-65
2021/12/22 09:44:09;;;;;;;14.20;5.30;;;;;;;-9.97;99.04;100025.50;1837629;78;20971;-66
2021/12/22 14:05:27;;;;;;;28.15;11.03;;;;;;;-10.13;99.49;100058.37;1814519;77;22410;-66
2021/12/22 14:07:53;;;;;;;23.38;9.83;;;;;;;-10.02;99.49;100060.69;1782606;80;20915;-66
2021/12/22 14:10:22;;;;;;;26.35;10.08;;;;;;;-9.88;99.68;100064.14;1782246;80;20982;-68
2021/12/22 14:12:57;;;;;;;23.52;9.05;;;;;;;-9.84;99.76;100055.61;1782422;80;21516;-66
2021/12/22 14:15:37;;;;;;;18.70;8.00;;;;;;;-9.78;99.87;100064.28;1782379;80;20946;-68
2021/12/22 14:18:06;;;;;;;25.95;10.10;;;;;;;-9.73;99.97;100062.42;1782387;80;20926;-68
2021/12/22 14:20:39;;;;;;;24.57;9.65;;;;;;;-9.67;100.00;100067.58;1782590;80;21512;-68
2021/12/22 14:23:07;;;;;;;23.15;9.03;;;;;;;-9.61;100.00;100070.04;1783000;80;21083;-68
2021/12/22 14:25:36;;;;;;;16.50;7.33;;;;;;;-9.56;100.00;100068.52;1782359;80;20939;-68
2021/12/22 14:28:20;;;;;;;20.80;7.83;;;;;;;-9.53;100.00;100076.18;1775283;80;21578;-68
2021/12/22 14:30:45;;;;;;;27.87;9.80;;;;;;;-9.59;100.00;100066.21;1767951;80;20944;-65
2021/12/22 14:33:19;;;;;;;29.87;12.13;;;;;;;-9.59;100.00;100072.88;1780936;80;21529;-65
2021/12/22 14:36:02;;;;;;;26.52;10.90;;;;;;;-9.53;100.00;100070.84;1780804;80;21173;-65
2021/12/22 14:38:32;;;;;;;23.27;9.10;;;;;;;-9.49;100.00;100069.16;1780689;80;20919;-67
2021/12/22 14:41:14;;;;;;;27.22;10.45;;;;;;;-9.44;100.00;100074.80;1780729;80;21618;-67
2021/12/22 14:43:45;;;;;;;25.23;9.70;;;;;;;-9.43;100.00;100073.29;1781611;80;21472;-66
2021/12/22 14:46:34;;;;;;;35.75;12.73;;;;;;;-9.43;100.00;100077.79;1781277;80;21463;-67
2021/12/22 14:49:01;;;;;;;35.65;10.82;;;;;;;-9.46;100.00;100088.33;1780697;80;21159;-67
2021/12/22 14:51:30;;;;;;;27.48;10.68;;;;;;;-9.53;100.00;100090.86;1780548;80;20914;-66
2021/12/22 14:54:00;;;;;;;27.80;10.23;;;;;;;-9.56;100.00;100081.87;1774207;80;21018;-67
2021/12/22 14:56:46;;;;;;;21.85;7.33;;;;;;;-9.65;100.00;100092.23;1742826;81;20993;-66
2021/12/22 14:59:13;;;;;;;27.93;10.18;;;;;;;-9.70;100.00;100094.59;1724947;82;20990;-64
2021/12/22 15:01:40;;;;;;;21.48;9.28;;;;;;;-9.68;100.00;100093.92;1753949;81;21110;-64
2021/12/22 15:04:10;;;;;;;12.90;6.37;;;;;;;-9.67;100.00;100093.74;1748498;81;20879;-66
2021/12/22 15:06:37;;;;;;;9.75;5.22;;;;;;;-9.69;100.00;100090.41;1742637;82;21428;-65
2021/12/22 15:09:06;;;;;;;7.75;4.20;;;;;;;-9.74;99.91;100094.09;1742523;82;20966;-66
2021/12/22 15:11:32;;;;;;;17.07;5.70;;;;;;;-9.79;99.84;100100.48;1742684;82;20947;-67
2021/12/22 15:13:58;;;;;;;16.23;7.17;;;;;;;-9.88;99.44;100103.66;1743078;82;21054;-65
2021/12/22 15:16:26;;;;;;;23.60;8.83;;;;;;;-9.98;99.41;100105.69;1742078;81;21519;-66
2021/12/22 15:18:53;;;;;;;17.70;7.00;;;;;;;-10.00;99.51;100105.86;1714633;82;20974;-67
2021/12/22 15:21:21;;;;;;;23.60;7.92;;;;;;;-9.98;99.58;100112.36;1740351;82;21089;-66
2021/12/22 15:23:47;;;;;;;33.08;9.70;;;;;;;-9.95;99.64;100109.34;1741051;82;21393;-67
2021/12/22 15:26:18;;;;;;;21.57;8.15;;;;;;;-9.93;99.64;100118.02;1741277;82;21125;-66
2021/12/22 15:28:48;;;;;;;11.80;5.50;;;;;;;-9.88;99.68;100119.67;1741169;82;21002;-67
2021/12/22 15:31:17;;;;;;;12.80;5.00;;;;;;;-9.85;99.21;100121.15;1740853;82;20896;-67
2021/12/22 15:33:45;;;;;;;24.23;7.87;;;;;;;-9.96;99.08;100133.03;1740885;82;20975;-67
2021/12/22 15:36:11;;;;;;;13.38;6.58;;;;;;;-10.07;98.95;100140.38;1740205;82;21007;-66
2021/12/22 15:38:38;;;;;;;10.90;5.55;;;;;;;-10.11;99.15;100137.70;1739458;82;21119;-69
2021/12/22 15:41:04;;;;;;;14.85;6.45;;;;;;;-10.21;98.72;100139.70;1739495;82;21058;-66
2021/12/22 15:43:31;;;;;;;7.30;3.72;;;;;;;-10.27;98.73;100142.56;1739801;82;21078;-67
2021/12/22 15:45:58;;;;;;;11.60;5.17;;;;;;;-10.36;98.30;100147.55;1740359;82;21506;-66
2021/12/22 15:48:25;;;;;;;16.85;6.90;;;;;;;-10.45;98.58;100149.37;1740098;82;21530;-68
2021/12/22 15:50:51;;;;;;;34.78;10.58;;;;;;;-10.45;98.90;100144.05;1740281;82;21102;-67
2021/12/22 15:53:18;;;;;;;21.37;7.72;;;;;;;-10.41;98.94;100152.05;1741262;82;20876;-68
2021/12/22 15:55:45;;;;;;;18.30;6.80;;;;;;;-10.37;98.87;100147.23;1741323;81;20927;-68
2021/12/22 15:58:16;;;;;;;15.40;6.05;;;;;;;-10.39;98.65;100150.06;1741283;82;20943;-67